DAL6441 KGEG-KLAS
Flight info
| Callsign | DAL6441 |
|---|---|
| Flight time | 1h 46m |
| Altitude | 33000 |
| Route | DNJ BROPH CRITO WINEN STEWW CHOWW4 |
| Aircraft | MD88/M-SDFGIRWY/C |
Departure
| Time | 2026-05-08 14:33 |
|---|---|
| Airport | Spokane International Airport (KGEG) |
Arrival
| Time | 2026-05-08 16:20 |
|---|---|
| Airport | Harry Reid International Airport (KLAS) |
| Time | Latitude | Longitude | Altitude | Speed | Heading |
|---|---|---|---|---|---|
| 2026-05-08 13:44 | 47.62491 | -117.53532 | 2363 ft | 0 kts | 299° |
| 2026-05-08 14:24 | 47.62487 | -117.53522 | 2363 ft | 3 kts | 300° |
| 2026-05-08 14:24 | 47.62476 | -117.53497 | 2362 ft | 3 kts | 309° |
| 2026-05-08 14:24 | 47.62463 | -117.53475 | 2362 ft | 3 kts | 317° |
| 2026-05-08 14:24 | 47.62448 | -117.53455 | 2362 ft | 3 kts | 317° |
| 2026-05-08 14:25 | 47.62433 | -117.53435 | 2362 ft | 3 kts | 318° |
| 2026-05-08 14:25 | 47.62419 | -117.53415 | 2362 ft | 2 kts | 318° |
| 2026-05-08 14:25 | 47.62415 | -117.53409 | 2362 ft | 1 kts | 318° |
| 2026-05-08 14:29 | 47.62444 | -117.53401 | 2361 ft | 7 kts | 39° |
| 2026-05-08 14:29 | 47.62485 | -117.53341 | 2360 ft | 9 kts | 44° |
| 2026-05-08 14:29 | 47.62508 | -117.53257 | 2358 ft | 10 kts | 101° |
| 2026-05-08 14:29 | 47.62512 | -117.53158 | 2357 ft | 10 kts | 54° |
| 2026-05-08 14:30 | 47.62567 | -117.53070 | 2355 ft | 16 kts | 45° |
| 2026-05-08 14:30 | 47.62677 | -117.52905 | 2351 ft | 27 kts | 45° |
| 2026-05-08 14:30 | 47.62807 | -117.52707 | 2347 ft | 27 kts | 45° |
| 2026-05-08 14:30 | 47.62936 | -117.52513 | 2343 ft | 25 kts | 45° |
| 2026-05-08 14:31 | 47.63051 | -117.52341 | 2339 ft | 19 kts | 45° |
| 2026-05-08 14:31 | 47.63148 | -117.52195 | 2336 ft | 20 kts | 45° |
| 2026-05-08 14:31 | 47.63230 | -117.52041 | 2333 ft | 18 kts | 89° |
| 2026-05-08 14:32 | 47.63110 | -117.51866 | 2332 ft | 5 kts | 195° |
| 2026-05-08 14:32 | 47.63039 | -117.51959 | 2336 ft | 29 kts | 225° |
| 2026-05-08 14:32 | 47.62742 | -117.52404 | 2345 ft | 88 kts | 225° |
| 2026-05-08 14:32 | 47.62199 | -117.53219 | 2365 ft | 133 kts | 225° |
| 2026-05-08 14:33 | 47.61454 | -117.54323 | 2382 ft | 170 kts | 224° |
| 2026-05-08 14:33 | 47.60572 | -117.55628 | 2715 ft | 182 kts | 224° |
| 2026-05-08 14:33 | 47.59636 | -117.57050 | 3030 ft | 204 kts | 224° |
| 2026-05-08 14:33 | 47.58638 | -117.58569 | 3697 ft | 205 kts | 224° |
| 2026-05-08 14:34 | 47.57659 | -117.60101 | 4450 ft | 204 kts | 230° |
| 2026-05-08 14:34 | 47.56765 | -117.61702 | 5197 ft | 201 kts | 214° |
| 2026-05-08 14:34 | 47.55443 | -117.62129 | 5739 ft | 203 kts | 162° |
| 2026-05-08 14:34 | 47.54177 | -117.61355 | 6521 ft | 194 kts | 159° |
| 2026-05-08 14:35 | 47.52892 | -117.60629 | 7021 ft | 200 kts | 162° |
| 2026-05-08 14:35 | 47.51555 | -117.59935 | 7472 ft | 209 kts | 162° |
| 2026-05-08 14:35 | 47.50157 | -117.59159 | 7883 ft | 219 kts | 160° |
| 2026-05-08 14:35 | 47.48693 | -117.58320 | 8266 ft | 232 kts | 160° |
| 2026-05-08 14:36 | 47.47143 | -117.57445 | 8671 ft | 245 kts | 161° |
| 2026-05-08 14:36 | 47.45505 | -117.56535 | 9073 ft | 257 kts | 161° |
| 2026-05-08 14:36 | 47.43788 | -117.55599 | 9476 ft | 268 kts | 162° |
| 2026-05-08 14:36 | 47.41984 | -117.54640 | 9750 ft | 286 kts | 162° |
| 2026-05-08 14:37 | 47.40084 | -117.53643 | 10252 ft | 291 kts | 162° |
| 2026-05-08 14:37 | 47.38169 | -117.52639 | 10910 ft | 292 kts | 162° |
| 2026-05-08 14:37 | 47.36251 | -117.51634 | 11513 ft | 294 kts | 162° |
| 2026-05-08 14:37 | 47.34313 | -117.50622 | 12123 ft | 297 kts | 162° |
| 2026-05-08 14:38 | 47.32352 | -117.49598 | 12669 ft | 302 kts | 162° |
| 2026-05-08 14:38 | 47.30329 | -117.48542 | 12976 ft | 316 kts | 162° |
| 2026-05-08 14:38 | 47.28210 | -117.47438 | 13243 ft | 331 kts | 162° |
| 2026-05-08 14:38 | 47.25989 | -117.46277 | 13482 ft | 346 kts | 162° |
| 2026-05-08 14:39 | 47.23676 | -117.45065 | 13753 ft | 359 kts | 162° |
| 2026-05-08 14:39 | 47.21299 | -117.43819 | 14206 ft | 366 kts | 162° |
| 2026-05-08 14:39 | 47.18889 | -117.42550 | 14797 ft | 369 kts | 162° |
| 2026-05-08 14:39 | 47.16492 | -117.41284 | 15314 ft | 374 kts | 162° |
| 2026-05-08 14:40 | 47.13993 | -117.39967 | 15857 ft | 378 kts | 162° |
| 2026-05-08 14:40 | 47.11507 | -117.38668 | 16407 ft | 382 kts | 163° |
| 2026-05-08 14:40 | 47.09025 | -117.37370 | 16909 ft | 386 kts | 163° |
| 2026-05-08 14:40 | 47.06479 | -117.36036 | 17421 ft | 390 kts | 163° |
| 2026-05-08 14:41 | 47.03914 | -117.34695 | 17913 ft | 394 kts | 163° |
| 2026-05-08 14:41 | 47.01322 | -117.33336 | 18401 ft | 398 kts | 163° |
| 2026-05-08 14:41 | 46.98707 | -117.31967 | 18897 ft | 401 kts | 163° |
| 2026-05-08 14:41 | 46.96067 | -117.30587 | 19375 ft | 404 kts | 163° |
| 2026-05-08 14:42 | 46.93404 | -117.29193 | 19797 ft | 409 kts | 163° |
| 2026-05-08 14:42 | 46.90715 | -117.27785 | 20272 ft | 411 kts | 163° |
| 2026-05-08 14:42 | 46.88016 | -117.26375 | 20697 ft | 415 kts | 163° |
| 2026-05-08 14:42 | 46.85280 | -117.24950 | 21131 ft | 418 kts | 163° |
| 2026-05-08 14:43 | 46.82533 | -117.23519 | 21548 ft | 421 kts | 163° |
| 2026-05-08 14:43 | 46.79759 | -117.22075 | 21983 ft | 424 kts | 163° |
| 2026-05-08 14:43 | 46.76969 | -117.20625 | 22334 ft | 428 kts | 163° |
| 2026-05-08 14:43 | 46.74153 | -117.19165 | 22776 ft | 430 kts | 163° |
| 2026-05-08 14:44 | 46.71323 | -117.17705 | 23132 ft | 434 kts | 163° |
| 2026-05-08 14:44 | 46.68470 | -117.16234 | 23533 ft | 436 kts | 163° |
| 2026-05-08 14:44 | 46.65595 | -117.14752 | 23869 ft | 440 kts | 163° |
| 2026-05-08 14:44 | 46.62707 | -117.13261 | 24231 ft | 443 kts | 163° |
| 2026-05-08 14:45 | 46.59793 | -117.11755 | 24597 ft | 445 kts | 163° |
| 2026-05-08 14:45 | 46.56865 | -117.10242 | 24946 ft | 448 kts | 163° |
| 2026-05-08 14:45 | 46.53917 | -117.08722 | 25290 ft | 450 kts | 164° |
| 2026-05-08 14:45 | 46.50961 | -117.07199 | 25635 ft | 452 kts | 164° |
| 2026-05-08 14:46 | 46.47985 | -117.05669 | 25926 ft | 456 kts | 164° |
| 2026-05-08 14:46 | 46.44989 | -117.04131 | 26264 ft | 457 kts | 164° |
| 2026-05-08 14:46 | 46.41983 | -117.02589 | 26556 ft | 460 kts | 164° |
| 2026-05-08 14:46 | 46.38956 | -117.01037 | 26879 ft | 462 kts | 164° |
| 2026-05-08 14:47 | 46.35909 | -116.99480 | 27128 ft | 466 kts | 164° |
| 2026-05-08 14:47 | 46.32811 | -116.97907 | 27027 ft | 479 kts | 164° |
| 2026-05-08 14:47 | 46.29652 | -116.96306 | 27251 ft | 482 kts | 164° |
| 2026-05-08 14:47 | 46.26495 | -116.94700 | 27702 ft | 480 kts | 164° |
| 2026-05-08 14:48 | 46.23345 | -116.93096 | 28083 ft | 480 kts | 164° |
| 2026-05-08 14:48 | 46.20199 | -116.91497 | 28466 ft | 479 kts | 164° |
| 2026-05-08 14:48 | 46.17055 | -116.89898 | 28829 ft | 479 kts | 164° |
| 2026-05-08 14:48 | 46.13956 | -116.88318 | 29161 ft | 479 kts | 164° |
| 2026-05-08 14:49 | 46.10818 | -116.86724 | 29522 ft | 478 kts | 164° |
| 2026-05-08 14:49 | 46.07701 | -116.85143 | 29845 ft | 477 kts | 164° |
| 2026-05-08 14:49 | 46.04562 | -116.83560 | 30176 ft | 476 kts | 164° |
| 2026-05-08 14:49 | 46.01424 | -116.81981 | 30463 ft | 477 kts | 164° |
| 2026-05-08 14:50 | 45.98300 | -116.80412 | 30778 ft | 476 kts | 164° |
| 2026-05-08 14:50 | 45.95183 | -116.78850 | 31121 ft | 474 kts | 164° |
| 2026-05-08 14:50 | 45.92058 | -116.77288 | 31327 ft | 476 kts | 164° |
| 2026-05-08 14:50 | 45.88936 | -116.75724 | 31608 ft | 474 kts | 164° |
| 2026-05-08 14:51 | 45.85828 | -116.74165 | 31906 ft | 473 kts | 163° |
| 2026-05-08 14:51 | 45.82715 | -116.72608 | 32100 ft | 475 kts | 163° |
| 2026-05-08 14:51 | 45.79600 | -116.71052 | 32454 ft | 472 kts | 164° |
| 2026-05-08 14:51 | 45.76495 | -116.69494 | 32657 ft | 473 kts | 163° |
| 2026-05-08 14:52 | 45.73389 | -116.67940 | 32903 ft | 473 kts | 164° |
| 2026-05-08 14:52 | 45.67129 | -116.64828 | 33063 ft | 480 kts | 164° |
| 2026-05-08 14:53 | 45.60763 | -116.61662 | 33102 ft | 490 kts | 164° |
| 2026-05-08 14:53 | 45.54261 | -116.58444 | 33093 ft | 497 kts | 163° |
| 2026-05-08 14:54 | 45.47728 | -116.55220 | 33092 ft | 496 kts | 164° |
| 2026-05-08 14:54 | 45.41218 | -116.52012 | 33097 ft | 495 kts | 164° |
| 2026-05-08 14:55 | 45.34718 | -116.48812 | 33109 ft | 494 kts | 164° |
| 2026-05-08 14:55 | 45.28227 | -116.45623 | 33118 ft | 493 kts | 163° |
| 2026-05-08 14:56 | 45.21745 | -116.42449 | 33123 ft | 493 kts | 163° |
| 2026-05-08 14:56 | 45.15253 | -116.39287 | 33114 ft | 493 kts | 164° |
| 2026-05-08 14:57 | 45.08764 | -116.36131 | 33114 ft | 493 kts | 164° |
| 2026-05-08 14:57 | 45.02275 | -116.32981 | 33121 ft | 493 kts | 164° |
| 2026-05-08 14:58 | 44.95785 | -116.29835 | 33126 ft | 493 kts | 163° |
| 2026-05-08 14:58 | 44.89343 | -116.26712 | 33131 ft | 492 kts | 163° |
| 2026-05-08 14:59 | 44.82870 | -116.23588 | 33127 ft | 492 kts | 164° |
| 2026-05-08 14:59 | 44.73252 | -116.18523 | 33131 ft | 494 kts | 157° |
| 2026-05-08 15:00 | 44.67076 | -116.14245 | 33125 ft | 495 kts | 155° |
| 2026-05-08 15:00 | 44.60920 | -116.09944 | 33125 ft | 494 kts | 156° |
| 2026-05-08 15:01 | 44.54706 | -116.05746 | 33131 ft | 498 kts | 156° |
| 2026-05-08 15:01 | 44.48482 | -116.01601 | 33126 ft | 494 kts | 156° |
| 2026-05-08 15:02 | 44.42278 | -115.97471 | 33128 ft | 493 kts | 156° |
| 2026-05-08 15:02 | 44.36116 | -115.93368 | 33139 ft | 494 kts | 156° |
| 2026-05-08 15:03 | 44.29916 | -115.89260 | 33137 ft | 494 kts | 156° |
| 2026-05-08 15:03 | 44.24727 | -115.85824 | 33143 ft | 493 kts | 156° |
| 2026-05-08 15:04 | 44.17522 | -115.81055 | 33147 ft | 493 kts | 157° |
| 2026-05-08 15:04 | 44.12335 | -115.77630 | 33140 ft | 492 kts | 157° |
| 2026-05-08 15:05 | 44.06142 | -115.73539 | 33145 ft | 491 kts | 156° |
| 2026-05-08 15:05 | 44.00050 | -115.69532 | 33143 ft | 486 kts | 157° |
| 2026-05-08 15:06 | 43.93912 | -115.65531 | 33143 ft | 488 kts | 157° |
| 2026-05-08 15:06 | 43.87759 | -115.61513 | 33135 ft | 488 kts | 157° |
| 2026-05-08 15:07 | 43.81611 | -115.57499 | 33136 ft | 489 kts | 157° |
| 2026-05-08 15:07 | 43.75456 | -115.53487 | 33136 ft | 490 kts | 157° |
| 2026-05-08 15:08 | 43.69280 | -115.49467 | 33144 ft | 490 kts | 157° |
| 2026-05-08 15:08 | 43.63113 | -115.45465 | 33135 ft | 490 kts | 157° |
| 2026-05-08 15:09 | 43.56934 | -115.41482 | 33127 ft | 490 kts | 157° |
| 2026-05-08 15:09 | 43.50750 | -115.37506 | 33124 ft | 490 kts | 157° |
| 2026-05-08 15:10 | 43.44582 | -115.33535 | 33121 ft | 489 kts | 157° |
| 2026-05-08 15:10 | 43.38404 | -115.29560 | 33121 ft | 491 kts | 157° |
| 2026-05-08 15:11 | 43.32208 | -115.25584 | 33112 ft | 491 kts | 157° |
| 2026-05-08 15:11 | 43.26021 | -115.21626 | 33108 ft | 491 kts | 156° |
| 2026-05-08 15:12 | 43.19819 | -115.17681 | 33108 ft | 491 kts | 156° |
| 2026-05-08 15:12 | 43.13617 | -115.13748 | 33107 ft | 491 kts | 156° |
| 2026-05-08 15:13 | 43.07420 | -115.09809 | 33109 ft | 491 kts | 156° |
| 2026-05-08 15:13 | 43.01254 | -115.05901 | 33114 ft | 491 kts | 156° |
| 2026-05-08 15:14 | 42.95052 | -115.01975 | 33119 ft | 491 kts | 156° |
| 2026-05-08 15:14 | 42.88848 | -114.98057 | 33120 ft | 491 kts | 157° |
| 2026-05-08 15:15 | 42.82649 | -114.94125 | 33119 ft | 492 kts | 156° |
| 2026-05-08 15:15 | 42.76443 | -114.90183 | 33118 ft | 493 kts | 156° |
| 2026-05-08 15:16 | 42.70025 | -114.87180 | 33131 ft | 486 kts | 176° |
| 2026-05-08 15:16 | 42.63286 | -114.86519 | 33125 ft | 485 kts | 180° |
| 2026-05-08 15:17 | 42.56549 | -114.86037 | 33111 ft | 485 kts | 180° |
| 2026-05-08 15:17 | 42.49811 | -114.85433 | 33108 ft | 485 kts | 179° |
| 2026-05-08 15:18 | 42.43071 | -114.84734 | 33109 ft | 485 kts | 178° |
| 2026-05-08 15:18 | 42.36329 | -114.84027 | 33107 ft | 485 kts | 179° |
| 2026-05-08 15:19 | 42.29594 | -114.83345 | 33107 ft | 486 kts | 179° |
| 2026-05-08 15:19 | 42.22854 | -114.82676 | 33108 ft | 486 kts | 179° |
| 2026-05-08 15:20 | 42.16114 | -114.82010 | 33109 ft | 486 kts | 179° |
| 2026-05-08 15:20 | 42.09365 | -114.81338 | 33104 ft | 486 kts | 179° |
| 2026-05-08 15:21 | 42.02672 | -114.80671 | 33109 ft | 486 kts | 179° |
| 2026-05-08 15:21 | 41.95882 | -114.80007 | 33115 ft | 486 kts | 179° |
| 2026-05-08 15:22 | 41.89139 | -114.79345 | 33116 ft | 486 kts | 179° |
| 2026-05-08 15:22 | 41.82455 | -114.78691 | 33115 ft | 484 kts | 179° |
| 2026-05-08 15:23 | 41.75732 | -114.78033 | 33118 ft | 485 kts | 178° |
| 2026-05-08 15:23 | 41.69005 | -114.77378 | 33131 ft | 485 kts | 179° |
| 2026-05-08 15:24 | 41.62278 | -114.76724 | 33130 ft | 485 kts | 179° |
| 2026-05-08 15:24 | 41.55552 | -114.76070 | 33136 ft | 485 kts | 178° |
| 2026-05-08 15:25 | 41.48825 | -114.75417 | 33139 ft | 485 kts | 179° |
| 2026-05-08 15:25 | 41.42096 | -114.74768 | 33135 ft | 485 kts | 179° |
| 2026-05-08 15:26 | 41.35375 | -114.74123 | 33136 ft | 484 kts | 179° |
| 2026-05-08 15:26 | 41.28657 | -114.73480 | 33138 ft | 483 kts | 179° |
| 2026-05-08 15:27 | 41.21947 | -114.72838 | 33136 ft | 483 kts | 178° |
| 2026-05-08 15:27 | 41.15238 | -114.72191 | 33141 ft | 483 kts | 179° |
| 2026-05-08 15:28 | 41.08536 | -114.71553 | 33144 ft | 483 kts | 179° |
| 2026-05-08 15:28 | 41.01831 | -114.70915 | 33144 ft | 483 kts | 179° |
| 2026-05-08 15:29 | 40.95131 | -114.70280 | 33144 ft | 483 kts | 178° |
| 2026-05-08 15:29 | 40.88437 | -114.69648 | 33138 ft | 482 kts | 178° |
| 2026-05-08 15:30 | 40.81745 | -114.69013 | 33137 ft | 482 kts | 178° |
| 2026-05-08 15:30 | 40.75059 | -114.68379 | 33143 ft | 482 kts | 178° |
| 2026-05-08 15:31 | 40.68380 | -114.67751 | 33148 ft | 481 kts | 178° |
| 2026-05-08 15:31 | 40.61740 | -114.67128 | 33152 ft | 482 kts | 178° |
| 2026-05-08 15:32 | 40.55060 | -114.66504 | 33146 ft | 481 kts | 178° |
| 2026-05-08 15:32 | 40.48389 | -114.65876 | 33146 ft | 480 kts | 178° |
| 2026-05-08 15:33 | 40.41727 | -114.65253 | 33155 ft | 481 kts | 178° |
| 2026-05-08 15:33 | 40.35053 | -114.64631 | 33153 ft | 481 kts | 178° |
| 2026-05-08 15:34 | 40.28377 | -114.64012 | 33164 ft | 480 kts | 178° |
| 2026-05-08 15:34 | 40.21715 | -114.63390 | 33165 ft | 480 kts | 178° |
| 2026-05-08 15:35 | 40.15056 | -114.62775 | 33159 ft | 480 kts | 178° |
| 2026-05-08 15:35 | 40.08395 | -114.62159 | 33165 ft | 480 kts | 178° |
| 2026-05-08 15:36 | 40.02814 | -114.61644 | 33183 ft | 480 kts | 178° |
| 2026-05-08 15:36 | 39.95066 | -114.60936 | 33184 ft | 479 kts | 178° |
| 2026-05-08 15:37 | 39.88427 | -114.60321 | 33181 ft | 478 kts | 178° |
| 2026-05-08 15:37 | 39.81784 | -114.59708 | 33188 ft | 479 kts | 178° |
| 2026-05-08 15:38 | 39.75135 | -114.59102 | 33192 ft | 479 kts | 178° |
| 2026-05-08 15:38 | 39.68485 | -114.58493 | 33196 ft | 479 kts | 178° |
| 2026-05-08 15:39 | 39.61832 | -114.57888 | 33202 ft | 479 kts | 178° |
| 2026-05-08 15:39 | 39.55183 | -114.57281 | 33206 ft | 479 kts | 178° |
| 2026-05-08 15:40 | 39.48539 | -114.56673 | 33205 ft | 479 kts | 178° |
| 2026-05-08 15:40 | 39.41899 | -114.56078 | 33208 ft | 477 kts | 178° |
| 2026-05-08 15:41 | 39.35261 | -114.55473 | 33215 ft | 479 kts | 178° |
| 2026-05-08 15:41 | 39.28717 | -114.54045 | 33224 ft | 482 kts | 156° |
| 2026-05-08 15:42 | 39.22934 | -114.49733 | 33230 ft | 484 kts | 147° |
| 2026-05-08 15:42 | 39.17235 | -114.45004 | 33212 ft | 484 kts | 148° |
| 2026-05-08 15:43 | 39.11530 | -114.40412 | 33211 ft | 484 kts | 149° |
| 2026-05-08 15:43 | 39.05803 | -114.35955 | 33205 ft | 484 kts | 149° |
| 2026-05-08 15:44 | 39.00032 | -114.31500 | 33203 ft | 483 kts | 149° |
| 2026-05-08 15:44 | 38.94280 | -114.27043 | 33190 ft | 483 kts | 149° |
| 2026-05-08 15:45 | 38.88521 | -114.22589 | 33189 ft | 484 kts | 149° |
| 2026-05-08 15:45 | 38.82756 | -114.18136 | 33180 ft | 484 kts | 149° |
| 2026-05-08 15:46 | 38.76989 | -114.13684 | 33177 ft | 484 kts | 149° |
| 2026-05-08 15:46 | 38.71221 | -114.09234 | 33170 ft | 484 kts | 149° |
| 2026-05-08 15:47 | 38.65453 | -114.04791 | 33165 ft | 484 kts | 149° |
| 2026-05-08 15:47 | 38.59677 | -114.00351 | 33167 ft | 484 kts | 149° |
| 2026-05-08 15:48 | 38.51006 | -113.93721 | 33150 ft | 484 kts | 149° |
| 2026-05-08 15:49 | 38.45230 | -113.89310 | 33145 ft | 484 kts | 149° |
| 2026-05-08 15:49 | 38.39447 | -113.84897 | 33144 ft | 484 kts | 149° |
| 2026-05-08 15:50 | 38.33670 | -113.80494 | 33145 ft | 484 kts | 149° |
| 2026-05-08 15:50 | 38.28871 | -113.76838 | 33144 ft | 484 kts | 149° |
| 2026-05-08 15:51 | 38.23091 | -113.72447 | 33146 ft | 484 kts | 149° |
| 2026-05-08 15:51 | 38.17307 | -113.68068 | 33147 ft | 484 kts | 149° |
| 2026-05-08 15:52 | 38.11516 | -113.63692 | 33146 ft | 484 kts | 149° |
| 2026-05-08 15:52 | 38.05735 | -113.59322 | 33146 ft | 484 kts | 149° |
| 2026-05-08 15:53 | 37.99946 | -113.54951 | 33146 ft | 484 kts | 149° |
| 2026-05-08 15:53 | 37.94048 | -113.50888 | 33156 ft | 483 kts | 163° |
| 2026-05-08 15:53 | 37.90762 | -113.50077 | 33171 ft | 481 kts | 179° |
| 2026-05-08 15:54 | 37.87416 | -113.50073 | 33174 ft | 481 kts | 184° |
| 2026-05-08 15:54 | 37.80742 | -113.50570 | 33148 ft | 480 kts | 186° |
| 2026-05-08 15:55 | 37.74074 | -113.51086 | 33142 ft | 480 kts | 185° |
| 2026-05-08 15:55 | 37.64051 | -113.51620 | 33142 ft | 481 kts | 184° |
| 2026-05-08 15:56 | 37.57371 | -113.51927 | 33133 ft | 480 kts | 184° |
| 2026-05-08 15:56 | 37.50694 | -113.52254 | 33124 ft | 480 kts | 184° |
| 2026-05-08 15:57 | 37.44015 | -113.52592 | 33113 ft | 480 kts | 184° |
| 2026-05-08 15:57 | 37.37327 | -113.52935 | 33099 ft | 481 kts | 184° |
| 2026-05-08 15:58 | 37.30649 | -113.53274 | 33081 ft | 479 kts | 184° |
| 2026-05-08 15:58 | 37.24072 | -113.53972 | 33067 ft | 476 kts | 198° |
| 2026-05-08 15:59 | 37.18017 | -113.57159 | 32575 ft | 471 kts | 209° |
| 2026-05-08 15:59 | 37.15085 | -113.58975 | 32072 ft | 469 kts | 209° |
| 2026-05-08 15:59 | 37.12175 | -113.60785 | 31574 ft | 466 kts | 208° |
| 2026-05-08 16:00 | 37.09265 | -113.62573 | 31075 ft | 465 kts | 208° |
| 2026-05-08 16:00 | 37.06353 | -113.64320 | 30576 ft | 465 kts | 207° |
| 2026-05-08 16:00 | 37.03418 | -113.66042 | 30083 ft | 467 kts | 207° |
| 2026-05-08 16:00 | 37.00466 | -113.67755 | 29591 ft | 469 kts | 207° |
| 2026-05-08 16:01 | 36.97497 | -113.69466 | 29096 ft | 471 kts | 207° |
| 2026-05-08 16:01 | 36.94519 | -113.71183 | 28604 ft | 472 kts | 207° |
| 2026-05-08 16:01 | 36.91530 | -113.72917 | 28111 ft | 474 kts | 207° |
| 2026-05-08 16:01 | 36.88532 | -113.74653 | 27612 ft | 476 kts | 207° |
| 2026-05-08 16:02 | 36.85528 | -113.76395 | 27120 ft | 477 kts | 207° |
| 2026-05-08 16:02 | 36.82511 | -113.78146 | 26625 ft | 478 kts | 207° |
| 2026-05-08 16:02 | 36.79487 | -113.79902 | 26134 ft | 481 kts | 207° |
| 2026-05-08 16:02 | 36.76449 | -113.81667 | 25637 ft | 482 kts | 207° |
| 2026-05-08 16:03 | 36.73364 | -113.83459 | 25133 ft | 483 kts | 207° |
| 2026-05-08 16:03 | 36.70355 | -113.85206 | 24641 ft | 484 kts | 207° |
| 2026-05-08 16:03 | 36.67292 | -113.86984 | 24135 ft | 486 kts | 207° |
| 2026-05-08 16:03 | 36.64229 | -113.88758 | 23634 ft | 487 kts | 207° |
| 2026-05-08 16:04 | 36.61148 | -113.90556 | 23135 ft | 488 kts | 209° |
| 2026-05-08 16:04 | 36.58346 | -113.92880 | 22633 ft | 482 kts | 225° |
| 2026-05-08 16:04 | 36.56099 | -113.95924 | 22133 ft | 467 kts | 234° |
| 2026-05-08 16:04 | 36.54191 | -113.99001 | 21601 ft | 432 kts | 236° |
| 2026-05-08 16:05 | 36.52433 | -114.01959 | 21102 ft | 423 kts | 237° |
| 2026-05-08 16:05 | 36.50712 | -114.04882 | 20597 ft | 416 kts | 237° |
| 2026-05-08 16:05 | 36.49007 | -114.07760 | 20097 ft | 410 kts | 236° |
| 2026-05-08 16:05 | 36.47306 | -114.10581 | 19589 ft | 406 kts | 236° |
| 2026-05-08 16:06 | 36.45602 | -114.13363 | 19085 ft | 403 kts | 235° |
| 2026-05-08 16:06 | 36.43896 | -114.16112 | 18504 ft | 401 kts | 234° |
| 2026-05-08 16:06 | 36.42189 | -114.18842 | 17880 ft | 399 kts | 234° |
| 2026-05-08 16:06 | 36.40492 | -114.21545 | 17385 ft | 391 kts | 234° |
| 2026-05-08 16:07 | 36.38859 | -114.24136 | 16910 ft | 372 kts | 234° |
| 2026-05-08 16:07 | 36.37289 | -114.26591 | 16443 ft | 355 kts | 234° |
| 2026-05-08 16:07 | 36.35777 | -114.28937 | 15991 ft | 341 kts | 234° |
| 2026-05-08 16:07 | 36.34325 | -114.31189 | 15533 ft | 328 kts | 234° |
| 2026-05-08 16:08 | 36.32926 | -114.33363 | 15076 ft | 317 kts | 234° |
| 2026-05-08 16:08 | 36.31569 | -114.35480 | 14661 ft | 311 kts | 234° |
| 2026-05-08 16:08 | 36.30238 | -114.37559 | 14227 ft | 306 kts | 234° |
| 2026-05-08 16:08 | 36.28922 | -114.39618 | 13789 ft | 303 kts | 234° |
| 2026-05-08 16:09 | 36.27622 | -114.41653 | 13441 ft | 301 kts | 234° |
| 2026-05-08 16:09 | 36.26347 | -114.43649 | 13072 ft | 299 kts | 234° |
| 2026-05-08 16:09 | 36.25061 | -114.45659 | 12699 ft | 297 kts | 233° |
| 2026-05-08 16:09 | 36.23778 | -114.47642 | 12324 ft | 295 kts | 233° |
| 2026-05-08 16:10 | 36.22495 | -114.49606 | 11947 ft | 292 kts | 233° |
| 2026-05-08 16:10 | 36.21219 | -114.51553 | 11572 ft | 290 kts | 233° |
| 2026-05-08 16:10 | 36.19946 | -114.53492 | 11200 ft | 291 kts | 233° |
| 2026-05-08 16:10 | 36.18657 | -114.55466 | 10832 ft | 291 kts | 232° |
| 2026-05-08 16:11 | 36.17390 | -114.57408 | 10449 ft | 291 kts | 232° |
| 2026-05-08 16:11 | 36.16136 | -114.59324 | 10080 ft | 290 kts | 232° |
| 2026-05-08 16:11 | 36.14868 | -114.61261 | 9714 ft | 289 kts | 232° |
| 2026-05-08 16:11 | 36.13600 | -114.63195 | 9339 ft | 289 kts | 232° |
| 2026-05-08 16:12 | 36.12333 | -114.65120 | 8976 ft | 288 kts | 231° |
| 2026-05-08 16:12 | 36.11068 | -114.67042 | 8597 ft | 287 kts | 231° |
| 2026-05-08 16:12 | 36.09811 | -114.68955 | 8258 ft | 285 kts | 231° |
| 2026-05-08 16:12 | 36.08579 | -114.70824 | 8088 ft | 273 kts | 231° |
| 2026-05-08 16:13 | 36.07544 | -114.72670 | 8039 ft | 250 kts | 249° |
| 2026-05-08 16:13 | 36.07249 | -114.74714 | 8012 ft | 241 kts | 268° |
| 2026-05-08 16:13 | 36.07222 | -114.76812 | 7705 ft | 247 kts | 271° |
| 2026-05-08 16:13 | 36.07237 | -114.78926 | 7326 ft | 242 kts | 271° |
| 2026-05-08 16:14 | 36.07270 | -114.80961 | 6955 ft | 230 kts | 272° |
| 2026-05-08 16:14 | 36.07308 | -114.82857 | 6667 ft | 210 kts | 272° |
| 2026-05-08 16:14 | 36.07342 | -114.84561 | 6562 ft | 193 kts | 272° |
| 2026-05-08 16:14 | 36.07366 | -114.86198 | 6518 ft | 195 kts | 271° |
| 2026-05-08 16:15 | 36.07387 | -114.87899 | 6302 ft | 201 kts | 271° |
| 2026-05-08 16:15 | 36.07395 | -114.89611 | 5939 ft | 197 kts | 270° |
| 2026-05-08 16:15 | 36.07393 | -114.91300 | 5568 ft | 195 kts | 270° |
| 2026-05-08 16:15 | 36.07380 | -114.92949 | 5193 ft | 193 kts | 270° |
| 2026-05-08 16:16 | 36.07379 | -114.94618 | 4848 ft | 190 kts | 270° |
| 2026-05-08 16:16 | 36.07377 | -114.96212 | 4596 ft | 183 kts | 270° |
| 2026-05-08 16:16 | 36.07375 | -114.97765 | 4412 ft | 179 kts | 270° |
| 2026-05-08 16:16 | 36.07375 | -114.99246 | 4227 ft | 165 kts | 270° |
| 2026-05-08 16:17 | 36.07375 | -115.00604 | 3976 ft | 153 kts | 270° |
| 2026-05-08 16:17 | 36.07375 | -115.01463 | 3831 ft | 150 kts | 270° |
| 2026-05-08 16:17 | 36.07371 | -115.03175 | 3587 ft | 148 kts | 270° |
| 2026-05-08 16:17 | 36.07373 | -115.04454 | 3410 ft | 148 kts | 270° |
| 2026-05-08 16:18 | 36.07370 | -115.05731 | 3210 ft | 149 kts | 270° |
| 2026-05-08 16:18 | 36.07370 | -115.07006 | 2980 ft | 148 kts | 271° |
| 2026-05-08 16:18 | 36.07367 | -115.08280 | 2785 ft | 148 kts | 271° |
| 2026-05-08 16:18 | 36.07366 | -115.09556 | 2609 ft | 149 kts | 271° |
| 2026-05-08 16:19 | 36.07367 | -115.10794 | 2437 ft | 149 kts | 271° |
| 2026-05-08 16:19 | 36.07373 | -115.11946 | 2295 ft | 148 kts | 271° |
| 2026-05-08 16:19 | 36.07371 | -115.13073 | 2195 ft | 140 kts | 270° |
| 2026-05-08 16:19 | 36.07370 | -115.14093 | 2190 ft | 100 kts | 270° |
| 2026-05-08 16:20 | 36.07369 | -115.14682 | 2190 ft | 49 kts | 269° |
| 2026-05-08 16:20 | 36.07368 | -115.15032 | 2188 ft | 26 kts | 270° |
| 2026-05-08 16:20 | 36.07380 | -115.15250 | 2192 ft | 25 kts | 282° |
| 2026-05-08 16:20 | 36.07436 | -115.15431 | 2189 ft | 20 kts | 299° |
| 2026-05-08 16:21 | 36.07508 | -115.15575 | 2191 ft | 19 kts | 311° |
| 2026-05-08 16:21 | 36.07571 | -115.15662 | 2190 ft | 18 kts | 314° |
| 2026-05-08 16:21 | 36.07655 | -115.15764 | 2189 ft | 20 kts | 316° |
| 2026-05-08 16:21 | 36.07738 | -115.15822 | 2192 ft | 11 kts | 353° |
| 2026-05-08 16:22 | 36.07796 | -115.15769 | 2189 ft | 11 kts | 68° |
| 2026-05-08 16:22 | 36.07804 | -115.15678 | 2189 ft | 11 kts | 87° |
| 2026-05-08 16:22 | 36.07804 | -115.15608 | 2189 ft | 11 kts | 90° |
| 2026-05-08 16:22 | 36.07804 | -115.15512 | 2189 ft | 11 kts | 90° |
| 2026-05-08 16:23 | 36.07805 | -115.15424 | 2189 ft | 11 kts | 90° |
| 2026-05-08 16:23 | 36.07804 | -115.15332 | 2193 ft | 11 kts | 90° |
| 2026-05-08 16:23 | 36.07803 | -115.15235 | 2192 ft | 11 kts | 91° |
| 2026-05-08 16:23 | 36.07802 | -115.15133 | 2190 ft | 12 kts | 91° |
| 2026-05-08 16:24 | 36.07800 | -115.15031 | 2189 ft | 12 kts | 91° |
| 2026-05-08 16:24 | 36.07796 | -115.14927 | 2189 ft | 12 kts | 94° |
| 2026-05-08 16:24 | 36.07806 | -115.14833 | 2193 ft | 11 kts | 58° |